sensor_id;sensor_type;location;lat;lon;timestamp;temperature;humidity
67502;SHT30;54349;52.528;19.760;2023-06-26T00:01:10;20.25;54.22
67502;SHT30;54349;52.528;19.760;2023-06-26T00:03:52;20.80;53.63
67502;SHT30;54349;52.528;19.760;2023-06-26T00:06:20;21.24;53.09
67502;SHT30;54349;52.528;19.760;2023-06-26T00:08:48;21.33;52.30
67502;SHT30;54349;52.528;19.760;2023-06-26T00:11:17;21.00;52.86
67502;SHT30;54349;52.528;19.760;2023-06-26T00:13:45;20.68;53.00
67502;SHT30;54349;52.528;19.760;2023-06-26T00:16:13;20.41;52.50
67502;SHT30;54349;52.528;19.760;2023-06-26T00:18:42;20.15;52.13
67502;SHT30;54349;52.528;19.760;2023-06-26T00:21:10;19.96;52.84
67502;SHT30;54349;52.528;19.760;2023-06-26T00:23:38;20.20;53.57
67502;SHT30;54349;52.528;19.760;2023-06-26T00:26:07;20.63;53.12
67502;SHT30;54349;52.528;19.760;2023-06-26T00:28:37;21.01;52.56
67502;SHT30;54349;52.528;19.760;2023-06-26T00:31:05;21.25;51.86
67502;SHT30;54349;52.528;19.760;2023-06-26T00:33:33;21.00;52.05
67502;SHT30;54349;52.528;19.760;2023-06-26T00:36:02;20.62;52.44
67502;SHT30;54349;52.528;19.760;2023-06-26T00:38:31;20.32;52.44
67502;SHT30;54349;52.528;19.760;2023-06-26T00:40:59;20.07;52.06
67502;SHT30;54349;52.528;19.760;2023-06-26T00:43:27;19.96;53.17
67502;SHT30;54349;52.528;19.760;2023-06-26T00:45:55;20.28;53.21
67502;SHT30;54349;52.528;19.760;2023-06-26T00:48:23;20.68;52.69
67502;SHT30;54349;52.528;19.760;2023-06-26T00:50:51;21.02;52.24
67502;SHT30;54349;52.528;19.760;2023-06-26T00:53:20;21.28;51.77
67502;SHT30;54349;52.528;19.760;2023-06-26T00:55:50;21.09;51.94
67502;SHT30;54349;52.528;19.760;2023-06-26T00:58:18;20.69;52.27
67502;SHT30;54349;52.528;19.760;2023-06-26T01:00:50;20.37;52.38
67502;SHT30;54349;52.528;19.760;2023-06-26T01:03:19;20.10;52.13
67502;SHT30;54349;52.528;19.760;2023-06-26T01:05:54;20.13;53.20
67502;SHT30;54349;52.528;19.760;2023-06-26T01:08:25;20.48;52.90
67502;SHT30;54349;52.528;19.760;2023-06-26T01:10:54;20.84;52.42
67502;SHT30;54349;52.528;19.760;2023-06-26T01:13:23;21.14;52.02
67502;SHT30;54349;52.528;19.760;2023-06-26T01:15:52;21.30;51.52
67502;SHT30;54349;52.528;19.760;2023-06-26T01:18:21;20.99;51.73
67502;SHT30;54349;52.528;19.760;2023-06-26T01:20:50;20.59;52.05
67502;SHT30;54349;52.528;19.760;2023-06-26T01:23:22;20.26;52.06
67502;SHT30;54349;52.528;19.760;2023-06-26T01:26:10;20.16;53.03
67502;SHT30;54349;52.528;19.760;2023-06-26T01:28:42;20.49;52.81
67502;SHT30;54349;52.528;19.760;2023-06-26T01:31:12;20.82;52.41
67502;SHT30;54349;52.528;19.760;2023-06-26T01:33:41;21.11;52.04
67502;SHT30;54349;52.528;19.760;2023-06-26T01:36:10;21.13;51.03
67502;SHT30;54349;52.528;19.760;2023-06-26T01:38:38;20.71;51.08
67502;SHT30;54349;52.528;19.760;2023-06-26T01:41:06;20.31;51.88
67502;SHT30;54349;52.528;19.760;2023-06-26T01:43:59;20.31;52.72
67502;SHT30;54349;52.528;19.760;2023-06-26T01:52:20;21.25;51.23
67502;SHT30;54349;52.528;19.760;2023-06-26T01:57:31;20.46;51.66
67502;SHT30;54349;52.528;19.760;2023-06-26T02:00:03;20.19;52.31
67502;SHT30;54349;52.528;19.760;2023-06-26T02:02:40;20.38;52.64
67502;SHT30;54349;52.528;19.760;2023-06-26T02:05:13;20.70;52.26
67502;SHT30;54349;52.528;19.760;2023-06-26T02:07:42;21.00;51.90
67502;SHT30;54349;52.528;19.760;2023-06-26T02:10:11;21.17;51.25
67502;SHT30;54349;52.528;19.760;2023-06-26T02:12:39;20.83;50.82
67502;SHT30;54349;52.528;19.760;2023-06-26T02:15:08;20.40;51.53
67502;SHT30;54349;52.528;19.760;2023-06-26T02:17:37;20.22;52.52
67502;SHT30;54349;52.528;19.760;2023-06-26T02:20:05;20.47;52.47
67502;SHT30;54349;52.528;19.760;2023-06-26T02:22:36;20.78;52.11
67502;SHT30;54349;52.528;19.760;2023-06-26T02:25:05;21.05;51.76
67502;SHT30;54349;52.528;19.760;2023-06-26T02:27:33;21.25;51.13
67502;SHT30;54349;52.528;19.760;2023-06-26T02:30:01;20.99;50.43
67502;SHT30;54349;52.528;19.760;2023-06-26T02:32:30;20.54;51.21
67502;SHT30;54349;52.528;19.760;2023-06-26T02:34:58;20.27;52.19
67502;SHT30;54349;52.528;19.760;2023-06-26T02:37:26;20.48;52.36
67502;SHT30;54349;52.528;19.760;2023-06-26T02:39:55;20.77;52.04
67502;SHT30;54349;52.528;19.760;2023-06-26T02:42:23;21.03;51.71
67502;SHT30;54349;52.528;19.760;2023-06-26T02:44:52;21.25;51.28
67502;SHT30;54349;52.528;19.760;2023-06-26T02:47:21;21.06;50.47
67502;SHT30;54349;52.528;19.760;2023-06-26T02:49:49;20.60;51.28
67502;SHT30;54349;52.528;19.760;2023-06-26T02:52:18;20.53;52.22
67502;SHT30;54349;52.528;19.760;2023-06-26T02:54:47;20.80;52.02
67502;SHT30;54349;52.528;19.760;2023-06-26T02:57:16;21.03;51.71
67502;SHT30;54349;52.528;19.760;2023-06-26T02:59:45;21.25;51.10
67502;SHT30;54349;52.528;19.760;2023-06-26T03:02:13;21.09;49.67
67502;SHT30;54349;52.528;19.760;2023-06-26T03:04:44;20.59;51.29
67502;SHT30;54349;52.528;19.760;2023-06-26T03:07:13;20.50;52.09
67502;SHT30;54349;52.528;19.760;2023-06-26T03:09:42;20.76;51.95
67502;SHT30;54349;52.528;19.760;2023-06-26T03:12:10;21.02;51.63
67502;SHT30;54349;52.528;19.760;2023-06-26T03:14:38;21.25;51.35
67502;SHT30;54349;52.528;19.760;2023-06-26T03:17:07;21.34;50.58
67502;SHT30;54349;52.528;19.760;2023-06-26T03:19:35;20.92;50.24
67502;SHT30;54349;52.528;19.760;2023-06-26T03:22:16;20.45;51.40
67502;SHT30;54349;52.528;19.760;2023-06-26T03:24:45;20.46;52.18
67502;SHT30;54349;52.528;19.760;2023-06-26T03:27:16;20.74;51.96
67502;SHT30;54349;52.528;19.760;2023-06-26T03:29:48;21.00;51.64
67502;SHT30;54349;52.528;19.760;2023-06-26T03:32:16;21.22;51.39
67502;SHT30;54349;52.528;19.760;2023-06-26T03:34:45;21.25;50.59
67502;SHT30;54349;52.528;19.760;2023-06-26T03:37:14;20.82;50.67
67502;SHT30;54349;52.528;19.760;2023-06-26T03:39:43;20.55;51.98
67502;SHT30;54349;52.528;19.760;2023-06-26T03:42:11;20.75;51.99
67502;SHT30;54349;52.528;19.760;2023-06-26T03:44:40;20.99;51.69
67502;SHT30;54349;52.528;19.760;2023-06-26T03:47:08;21.21;51.46
67502;SHT30;54349;52.528;19.760;2023-06-26T03:49:37;21.37;51.10
67502;SHT30;54349;52.528;19.760;2023-06-26T03:52:05;21.13;50.48
67502;SHT30;54349;52.528;19.760;2023-06-26T03:54:34;20.65;51.01
67502;SHT30;54349;52.528;19.760;2023-06-26T03:57:03;20.42;52.23
67502;SHT30;54349;52.528;19.760;2023-06-26T03:59:31;20.63;52.22
67502;SHT30;54349;52.528;19.760;2023-06-26T04:02:00;20.90;51.94
67502;SHT30;54349;52.528;19.760;2023-06-26T04:04:28;21.12;51.66
67502;SHT30;54349;52.528;19.760;2023-06-26T04:06:58;21.29;51.41
67502;SHT30;54349;52.528;19.760;2023-06-26T04:09:28;21.03;50.86
67502;SHT30;54349;52.528;19.760;2023-06-26T04:11:57;20.58;51.30
67502;SHT30;54349;52.528;19.760;2023-06-26T04:14:25;20.33;52.37
67502;SHT30;54349;52.528;19.760;2023-06-26T04:16:53;20.53;52.44
67502;SHT30;54349;52.528;19.760;2023-06-26T04:19:22;20.82;52.15
67502;SHT30;54349;52.528;19.760;2023-06-26T04:21:50;21.06;51.84
67502;SHT30;54349;52.528;19.760;2023-06-26T04:24:19;21.17;51.50
67502;SHT30;54349;52.528;19.760;2023-06-26T04:26:47;20.83;51.31
67502;SHT30;54349;52.528;19.760;2023-06-26T04:29:15;20.41;52.10
67502;SHT30;54349;52.528;19.760;2023-06-26T04:31:43;20.29;52.90
67502;SHT30;54349;52.528;19.760;2023-06-26T04:34:14;20.53;52.70
67502;SHT30;54349;52.528;19.760;2023-06-26T04:36:42;20.82;52.40
67502;SHT30;54349;52.528;19.760;2023-06-26T04:39:15;21.05;52.04
67502;SHT30;54349;52.528;19.760;2023-06-26T04:41:44;21.09;51.76
67502;SHT30;54349;52.528;19.760;2023-06-26T04:44:13;20.71;51.78
67502;SHT30;54349;52.528;19.760;2023-06-26T04:46:41;20.33;52.37
67502;SHT30;54349;52.528;19.760;2023-06-26T04:49:09;20.36;53.02
67502;SHT30;54349;52.528;19.760;2023-06-26T04:51:38;20.64;52.74
67502;SHT30;54349;52.528;19.760;2023-06-26T04:54:12;20.90;52.38
67502;SHT30;54349;52.528;19.760;2023-06-26T04:56:40;21.12;52.17
67502;SHT30;54349;52.528;19.760;2023-06-26T04:59:09;20.99;51.85
67502;SHT30;54349;52.528;19.760;2023-06-26T05:01:41;20.58;52.18
67502;SHT30;54349;52.528;19.760;2023-06-26T05:04:09;20.24;52.47
67502;SHT30;54349;52.528;19.760;2023-06-26T05:06:37;20.25;53.28
67502;SHT30;54349;52.528;19.760;2023-06-26T05:09:05;20.51;52.99
67502;SHT30;54349;52.528;19.760;2023-06-26T05:11:34;20.78;52.61
67502;SHT30;54349;52.528;19.760;2023-06-26T05:14:03;21.02;52.30
67502;SHT30;54349;52.528;19.760;2023-06-26T05:16:35;21.13;52.12
67502;SHT30;54349;52.528;19.760;2023-06-26T05:19:03;20.81;51.89
67502;SHT30;54349;52.528;19.760;2023-06-26T05:21:31;20.40;52.36
67502;SHT30;54349;52.528;19.760;2023-06-26T05:24:00;20.23;53.29
67502;SHT30;54349;52.528;19.760;2023-06-26T05:26:30;20.47;53.16
67502;SHT30;54349;52.528;19.760;2023-06-26T05:28:59;20.74;52.77
67502;SHT30;54349;52.528;19.760;2023-06-26T05:31:28;20.98;52.48
67502;SHT30;54349;52.528;19.760;2023-06-26T05:34:02;21.07;52.43
67502;SHT30;54349;52.528;19.760;2023-06-26T05:36:31;20.71;52.29
67502;SHT30;54349;52.528;19.760;2023-06-26T05:39:02;20.33;52.60
67502;SHT30;54349;52.528;19.760;2023-06-26T05:41:31;20.28;53.44
67502;SHT30;54349;52.528;19.760;2023-06-26T05:43:59;20.54;53.17
67502;SHT30;54349;52.528;19.760;2023-06-26T05:46:28;20.82;52.78
67502;SHT30;54349;52.528;19.760;2023-06-26T05:48:56;21.05;52.42
67502;SHT30;54349;52.528;19.760;2023-06-26T05:51:25;21.19;52.58
67502;SHT30;54349;52.528;19.760;2023-06-26T05:53:54;20.93;52.39
67502;SHT30;54349;52.528;19.760;2023-06-26T05:56:22;20.55;52.65
67502;SHT30;54349;52.528;19.760;2023-06-26T05:58:51;20.22;52.94
67502;SHT30;54349;52.528;19.760;2023-06-26T06:01:21;20.22;53.76
67502;SHT30;54349;52.528;19.760;2023-06-26T06:03:49;20.52;53.73
67502;SHT30;54349;52.528;19.760;2023-06-26T06:06:17;20.80;53.32
67502;SHT30;54349;52.528;19.760;2023-06-26T06:08:46;21.05;53.32
67502;SHT30;54349;52.528;19.760;2023-06-26T06:11:16;21.03;53.61
67502;SHT30;54349;52.528;19.760;2023-06-26T06:13:44;20.71;53.75
67502;SHT30;54349;52.528;19.760;2023-06-26T06:16:12;20.44;54.03
67502;SHT30;54349;52.528;19.760;2023-06-26T06:18:41;20.21;54.12
67502;SHT30;54349;52.528;19.760;2023-06-26T06:21:09;19.98;54.27
67502;SHT30;54349;52.528;19.760;2023-06-26T06:23:37;19.82;54.62
67502;SHT30;54349;52.528;19.760;2023-06-26T06:26:06;19.99;55.64
67502;SHT30;54349;52.528;19.760;2023-06-26T06:28:34;20.42;55.47
67502;SHT30;54349;52.528;19.760;2023-06-26T06:31:02;20.81;55.00
67502;SHT30;54349;52.528;19.760;2023-06-26T06:33:31;21.12;54.70
67502;SHT30;54349;52.528;19.760;2023-06-26T06:35:59;21.17;54.55
67502;SHT30;54349;52.528;19.760;2023-06-26T06:38:28;20.86;54.32
67502;SHT30;54349;52.528;19.760;2023-06-26T06:40:56;20.56;54.32
67502;SHT30;54349;52.528;19.760;2023-06-26T06:43:24;20.32;54.45
67502;SHT30;54349;52.528;19.760;2023-06-26T06:45:52;20.11;54.70
67502;SHT30;54349;52.528;19.760;2023-06-26T06:48:21;19.93;54.78
67502;SHT30;54349;52.528;19.760;2023-06-26T06:50:50;19.91;55.65
67502;SHT30;54349;52.528;19.760;2023-06-26T06:53:19;20.27;55.71
67502;SHT30;54349;52.528;19.760;2023-06-26T06:55:51;20.70;55.20
67502;SHT30;54349;52.528;19.760;2023-06-26T06:58:20;21.07;54.74
67502;SHT30;54349;52.528;19.760;2023-06-26T07:00:49;21.30;55.31
67502;SHT30;54349;52.528;19.760;2023-06-26T07:03:19;21.10;55.27
67502;SHT30;54349;52.528;19.760;2023-06-26T07:05:49;20.85;55.82
67502;SHT30;54349;52.528;19.760;2023-06-26T07:08:17;20.63;55.48
67502;SHT30;54349;52.528;19.760;2023-06-26T07:10:46;20.44;55.58
67502;SHT30;54349;52.528;19.760;2023-06-26T07:13:15;20.27;55.69
67502;SHT30;54349;52.528;19.760;2023-06-26T07:15:45;20.14;55.66
67502;SHT30;54349;52.528;19.760;2023-06-26T07:18:16;20.00;55.86
67502;SHT30;54349;52.528;19.760;2023-06-26T07:20:44;19.88;55.87
67502;SHT30;54349;52.528;19.760;2023-06-26T07:23:13;19.76;55.98
67502;SHT30;54349;52.528;19.760;2023-06-26T07:25:41;19.68;55.99
67502;SHT30;54349;52.528;19.760;2023-06-26T07:28:12;19.76;57.03
67502;SHT30;54349;52.528;19.760;2023-06-26T07:30:41;20.25;56.74
67502;SHT30;54349;52.528;19.760;2023-06-26T07:33:09;20.72;56.06
67502;SHT30;54349;52.528;19.760;2023-06-26T07:35:38;21.13;55.69
67502;SHT30;54349;52.528;19.760;2023-06-26T07:38:07;21.31;56.82
67502;SHT30;54349;52.528;19.760;2023-06-26T07:40:36;21.10;56.46
67502;SHT30;54349;52.528;19.760;2023-06-26T07:43:05;20.87;56.32
67502;SHT30;54349;52.528;19.760;2023-06-26T07:45:34;20.66;56.03
67502;SHT30;54349;52.528;19.760;2023-06-26T07:48:03;20.49;56.16
67502;SHT30;54349;52.528;19.760;2023-06-26T07:50:32;20.34;56.10
67502;SHT30;54349;52.528;19.760;2023-06-26T07:53:03;20.20;56.05
67502;SHT30;54349;52.528;19.760;2023-06-26T07:55:33;20.07;56.07
67502;SHT30;54349;52.528;19.760;2023-06-26T07:58:02;19.96;56.11
67502;SHT30;54349;52.528;19.760;2023-06-26T08:00:30;19.86;56.29
67502;SHT30;54349;52.528;19.760;2023-06-26T08:03:00;19.79;56.43
67502;SHT30;54349;52.528;19.760;2023-06-26T08:05:29;19.72;56.32
67502;SHT30;54349;52.528;19.760;2023-06-26T08:07:58;19.64;56.26
67502;SHT30;54349;52.528;19.760;2023-06-26T08:10:30;19.58;56.10
67502;SHT30;54349;52.528;19.760;2023-06-26T08:13:00;19.51;56.03
67502;SHT30;54349;52.528;19.760;2023-06-26T08:15:32;19.48;55.92
67502;SHT30;54349;52.528;19.760;2023-06-26T08:18:01;19.46;56.30
67502;SHT30;54349;52.528;19.760;2023-06-26T08:20:30;19.83;56.84
67502;SHT30;54349;52.528;19.760;2023-06-26T08:22:58;20.37;56.25
67502;SHT30;54349;52.528;19.760;2023-06-26T08:25:26;20.86;55.65
67502;SHT30;54349;52.528;19.760;2023-06-26T08:27:55;21.24;55.75
67502;SHT30;54349;52.528;19.760;2023-06-26T08:30:24;21.26;55.81
67502;SHT30;54349;52.528;19.760;2023-06-26T08:32:55;20.99;55.16
67502;SHT30;54349;52.528;19.760;2023-06-26T08:35:24;20.74;54.91
67502;SHT30;54349;52.528;19.760;2023-06-26T08:37:52;20.51;54.94
67502;SHT30;54349;52.528;19.760;2023-06-26T08:40:22;20.37;55.66
67502;SHT30;54349;52.528;19.760;2023-06-26T08:42:51;20.25;55.84
67502;SHT30;54349;52.528;19.760;2023-06-26T08:45:21;20.15;56.05
67502;SHT30;54349;52.528;19.760;2023-06-26T08:47:51;20.06;56.08
67502;SHT30;54349;52.528;19.760;2023-06-26T08:50:23;19.98;56.41
67502;SHT30;54349;52.528;19.760;2023-06-26T08:52:53;19.92;56.59
67502;SHT30;54349;52.528;19.760;2023-06-26T08:55:27;19.86;56.50
67502;SHT30;54349;52.528;19.760;2023-06-26T08:57:56;19.80;56.35
67502;SHT30;54349;52.528;19.760;2023-06-26T09:00:25;19.76;56.18
67502;SHT30;54349;52.528;19.760;2023-06-26T09:02:54;19.71;55.98
67502;SHT30;54349;52.528;19.760;2023-06-26T09:05:25;19.67;55.93
67502;SHT30;54349;52.528;19.760;2023-06-26T09:07:55;19.62;55.79
67502;SHT30;54349;52.528;19.760;2023-06-26T09:10:25;19.60;55.64
67502;SHT30;54349;52.528;19.760;2023-06-26T09:12:55;19.57;55.47
67502;SHT30;54349;52.528;19.760;2023-06-26T09:15:25;19.54;55.45
67502;SHT30;54349;52.528;19.760;2023-06-26T09:17:58;19.51;55.48
67502;SHT30;54349;52.528;19.760;2023-06-26T09:20:30;19.50;55.51
67502;SHT30;54349;52.528;19.760;2023-06-26T09:23:01;19.48;55.62
67502;SHT30;54349;52.528;19.760;2023-06-26T09:25:30;19.46;55.80
67502;SHT30;54349;52.528;19.760;2023-06-26T09:27:58;19.46;55.99
67502;SHT30;54349;52.528;19.760;2023-06-26T09:30:26;19.45;55.92
67502;SHT30;54349;52.528;19.760;2023-06-26T09:32:55;19.46;55.93
67502;SHT30;54349;52.528;19.760;2023-06-26T09:35:23;19.47;55.88
67502;SHT30;54349;52.528;19.760;2023-06-26T09:37:55;19.47;55.85
67502;SHT30;54349;52.528;19.760;2023-06-26T09:40:26;19.48;55.81
67502;SHT30;54349;52.528;19.760;2023-06-26T09:43:02;19.48;55.81
67502;SHT30;54349;52.528;19.760;2023-06-26T09:45:33;19.49;56.04
67502;SHT30;54349;52.528;19.760;2023-06-26T09:48:08;19.50;56.13
67502;SHT30;54349;52.528;19.760;2023-06-26T09:50:37;19.51;56.16
67502;SHT30;54349;52.528;19.760;2023-06-26T09:53:20;19.51;56.16
67502;SHT30;54349;52.528;19.760;2023-06-26T09:55:48;19.51;56.10
67502;SHT30;54349;52.528;19.760;2023-06-26T09:58:17;19.51;55.90
67502;SHT30;54349;52.528;19.760;2023-06-26T10:00:46;19.53;55.89
67502;SHT30;54349;52.528;19.760;2023-06-26T10:03:14;19.53;55.82
67502;SHT30;54349;52.528;19.760;2023-06-26T10:05:44;19.55;55.96
67502;SHT30;54349;52.528;19.760;2023-06-26T10:08:14;19.57;55.97
67502;SHT30;54349;52.528;19.760;2023-06-26T10:10:45;19.59;56.96
67502;SHT30;54349;52.528;19.760;2023-06-26T10:13:18;19.66;57.71
67502;SHT30;54349;52.528;19.760;2023-06-26T10:15:50;19.70;57.52
67502;SHT30;54349;52.528;19.760;2023-06-26T10:18:21;19.71;57.15
67502;SHT30;54349;52.528;19.760;2023-06-26T10:20:53;19.72;56.97
67502;SHT30;54349;52.528;19.760;2023-06-26T10:23:25;19.72;56.91
67502;SHT30;54349;52.528;19.760;2023-06-26T10:25:58;19.71;56.66
67502;SHT30;54349;52.528;19.760;2023-06-26T10:28:31;19.73;56.50
67502;SHT30;54349;52.528;19.760;2023-06-26T10:31:02;19.73;56.51
67502;SHT30;54349;52.528;19.760;2023-06-26T10:33:34;19.76;56.52
67502;SHT30;54349;52.528;19.760;2023-06-26T10:36:16;19.82;56.36
67502;SHT30;54349;52.528;19.760;2023-06-26T10:38:50;19.87;56.31
67502;SHT30;54349;52.528;19.760;2023-06-26T10:41:39;19.94;55.39
67502;SHT30;54349;52.528;19.760;2023-06-26T10:44:27;19.97;54.83
67502;SHT30;54349;52.528;19.760;2023-06-26T10:47:10;20.03;55.68
67502;SHT30;54349;52.528;19.760;2023-06-26T10:49:40;20.10;55.82
67502;SHT30;54349;52.528;19.760;2023-06-26T10:52:28;20.19;55.69
67502;SHT30;54349;52.528;19.760;2023-06-26T10:54:57;20.26;55.58
67502;SHT30;54349;52.528;19.760;2023-06-26T10:57:28;20.32;55.45
67502;SHT30;54349;52.528;19.760;2023-06-26T11:00:09;20.36;54.43
67502;SHT30;54349;52.528;19.760;2023-06-26T11:02:52;20.38;54.08
67502;SHT30;54349;52.528;19.760;2023-06-26T11:05:25;20.37;54.04
67502;SHT30;54349;52.528;19.760;2023-06-26T11:08:08;20.37;54.68
67502;SHT30;54349;52.528;19.760;2023-06-26T11:10:48;20.38;54.86
67502;SHT30;54349;52.528;19.760;2023-06-26T11:13:21;20.38;55.34
67502;SHT30;54349;52.528;19.760;2023-06-26T11:15:50;20.37;55.54
67502;SHT30;54349;52.528;19.760;2023-06-26T11:18:19;20.37;56.26
67502;SHT30;54349;52.528;19.760;2023-06-26T11:20:48;20.38;55.72
67502;SHT30;54349;52.528;19.760;2023-06-26T11:23:16;20.34;54.57
67502;SHT30;54349;52.528;19.760;2023-06-26T11:25:52;20.31;55.00
67502;SHT30;54349;52.528;19.760;2023-06-26T11:28:22;20.29;55.39
67502;SHT30;54349;52.528;19.760;2023-06-26T11:30:51;20.30;55.40
67502;SHT30;54349;52.528;19.760;2023-06-26T11:33:26;20.31;55.43
67502;SHT30;54349;52.528;19.760;2023-06-26T11:35:55;20.33;55.26
67502;SHT30;54349;52.528;19.760;2023-06-26T11:38:23;20.35;54.33
67502;SHT30;54349;52.528;19.760;2023-06-26T11:40:51;20.33;54.78
67502;SHT30;54349;52.528;19.760;2023-06-26T11:43:21;20.35;54.48
67502;SHT30;54349;52.528;19.760;2023-06-26T11:45:49;20.33;53.73
67502;SHT30;54349;52.528;19.760;2023-06-26T11:48:17;20.29;54.05
67502;SHT30;54349;52.528;19.760;2023-06-26T11:50:49;20.30;54.33
67502;SHT30;54349;52.528;19.760;2023-06-26T11:53:19;20.30;54.28
67502;SHT30;54349;52.528;19.760;2023-06-26T11:55:47;20.31;54.21
67502;SHT30;54349;52.528;19.760;2023-06-26T11:58:15;20.33;54.15
67502;SHT30;54349;52.528;19.760;2023-06-26T12:00:44;20.37;54.61
67502;SHT30;54349;52.528;19.760;2023-06-26T12:03:12;20.40;53.60
67502;SHT30;54349;52.528;19.760;2023-06-26T12:05:41;20.38;53.00
67502;SHT30;54349;52.528;19.760;2023-06-26T12:08:13;20.35;53.71
67502;SHT30;54349;52.528;19.760;2023-06-26T12:10:42;20.35;54.15
67502;SHT30;54349;52.528;19.760;2023-06-26T12:13:13;20.37;54.05
67502;SHT30;54349;52.528;19.760;2023-06-26T12:15:42;20.34;53.62
67502;SHT30;54349;52.528;19.760;2023-06-26T12:18:10;20.34;54.25
67502;SHT30;54349;52.528;19.760;2023-06-26T12:20:39;20.35;54.02
67502;SHT30;54349;52.528;19.760;2023-06-26T12:23:12;20.32;52.45
67502;SHT30;54349;52.528;19.760;2023-06-26T12:25:42;20.27;52.73
67502;SHT30;54349;52.528;19.760;2023-06-26T12:28:17;20.28;53.67
67502;SHT30;54349;52.528;19.760;2023-06-26T12:30:46;20.34;53.18
67502;SHT30;54349;52.528;19.760;2023-06-26T12:33:15;20.35;52.06
67502;SHT30;54349;52.528;19.760;2023-06-26T12:35:45;20.33;51.79
67502;SHT30;54349;52.528;19.760;2023-06-26T12:38:13;20.32;51.83
67502;SHT30;54349;52.528;19.760;2023-06-26T12:40:46;20.31;52.28
67502;SHT30;54349;52.528;19.760;2023-06-26T12:43:25;20.35;52.52
67502;SHT30;54349;52.528;19.760;2023-06-26T12:45:55;20.38;52.05
67502;SHT30;54349;52.528;19.760;2023-06-26T12:48:39;20.41;51.89
67502;SHT30;54349;52.528;19.760;2023-06-26T12:51:12;20.43;51.73
67502;SHT30;54349;52.528;19.760;2023-06-26T12:53:41;20.45;51.70
67502;SHT30;54349;52.528;19.760;2023-06-26T12:56:10;20.47;51.70
67502;SHT30;54349;52.528;19.760;2023-06-26T12:58:39;20.51;51.99
67502;SHT30;54349;52.528;19.760;2023-06-26T13:01:07;20.54;51.41
67502;SHT30;54349;52.528;19.760;2023-06-26T13:03:43;20.56;51.16
67502;SHT30;54349;52.528;19.760;2023-06-26T13:06:11;20.60;51.14
67502;SHT30;54349;52.528;19.760;2023-06-26T13:08:41;20.63;51.34
67502;SHT30;54349;52.528;19.760;2023-06-26T13:11:11;20.65;51.16
67502;SHT30;54349;52.528;19.760;2023-06-26T13:13:39;20.66;51.12
67502;SHT30;54349;52.528;19.760;2023-06-26T13:16:08;20.68;51.16
67502;SHT30;54349;52.528;19.760;2023-06-26T13:18:36;20.69;51.09
67502;SHT30;54349;52.528;19.760;2023-06-26T13:21:04;20.72;51.09
67502;SHT30;54349;52.528;19.760;2023-06-26T13:23:32;20.76;51.72
67502;SHT30;54349;52.528;19.760;2023-06-26T13:26:01;20.82;52.21
67502;SHT30;54349;52.528;19.760;2023-06-26T13:28:29;20.88;51.91
67502;SHT30;54349;52.528;19.760;2023-06-26T13:30:57;20.92;51.68
67502;SHT30;54349;52.528;19.760;2023-06-26T13:33:26;20.95;51.51
67502;SHT30;54349;52.528;19.760;2023-06-26T13:35:54;20.98;50.78
67502;SHT30;54349;52.528;19.760;2023-06-26T13:38:24;20.99;50.44
67502;SHT30;54349;52.528;19.760;2023-06-26T13:40:54;20.99;50.35
67502;SHT30;54349;52.528;19.760;2023-06-26T13:43:24;20.98;50.18
67502;SHT30;54349;52.528;19.760;2023-06-26T13:45:53;20.97;50.15
67502;SHT30;54349;52.528;19.760;2023-06-26T13:48:22;20.95;49.92
67502;SHT30;54349;52.528;19.760;2023-06-26T13:50:53;20.96;50.18
67502;SHT30;54349;52.528;19.760;2023-06-26T13:53:21;20.96;50.22
67502;SHT30;54349;52.528;19.760;2023-06-26T13:55:50;20.95;50.62
67502;SHT30;54349;52.528;19.760;2023-06-26T13:58:19;20.93;51.27
67502;SHT30;54349;52.528;19.760;2023-06-26T14:00:49;20.93;50.75
67502;SHT30;54349;52.528;19.760;2023-06-26T14:03:20;20.91;50.44
67502;SHT30;54349;52.528;19.760;2023-06-26T14:05:49;20.90;50.53
67502;SHT30;54349;52.528;19.760;2023-06-26T14:08:17;20.92;50.94
67502;SHT30;54349;52.528;19.760;2023-06-26T14:10:46;20.95;50.93
67502;SHT30;54349;52.528;19.760;2023-06-26T14:13:14;20.97;50.27
67502;SHT30;54349;52.528;19.760;2023-06-26T14:15:43;20.99;49.92
67502;SHT30;54349;52.528;19.760;2023-06-26T14:18:12;21.00;49.84
67502;SHT30;54349;52.528;19.760;2023-06-26T14:20:40;20.98;49.58
67502;SHT30;54349;52.528;19.760;2023-06-26T14:23:10;20.94;49.27
67502;SHT30;54349;52.528;19.760;2023-06-26T14:25:39;20.92;48.92
67502;SHT30;54349;52.528;19.760;2023-06-26T14:28:08;20.89;48.72
67502;SHT30;54349;52.528;19.760;2023-06-26T14:30:36;20.84;48.53
67502;SHT30;54349;52.528;19.760;2023-06-26T14:33:05;20.78;48.66
67502;SHT30;54349;52.528;19.760;2023-06-26T14:35:33;20.72;48.43
67502;SHT30;54349;52.528;19.760;2023-06-26T14:38:03;20.63;48.45
67502;SHT30;54349;52.528;19.760;2023-06-26T14:40:31;20.58;48.36
67502;SHT30;54349;52.528;19.760;2023-06-26T14:43:00;20.52;48.39
67502;SHT30;54349;52.528;19.760;2023-06-26T14:45:28;20.50;49.87
67502;SHT30;54349;52.528;19.760;2023-06-26T14:47:56;20.51;50.11
67502;SHT30;54349;52.528;19.760;2023-06-26T14:50:25;20.51;49.76
67502;SHT30;54349;52.528;19.760;2023-06-26T14:52:54;20.50;49.57
67502;SHT30;54349;52.528;19.760;2023-06-26T14:55:22;20.48;49.57
67502;SHT30;54349;52.528;19.760;2023-06-26T14:57:51;20.42;48.96
67502;SHT30;54349;52.528;19.760;2023-06-26T15:00:20;20.38;48.95
67502;SHT30;54349;52.528;19.760;2023-06-26T15:02:49;20.35;49.31
67502;SHT30;54349;52.528;19.760;2023-06-26T15:05:25;20.31;48.94
67502;SHT30;54349;52.528;19.760;2023-06-26T15:07:53;20.29;48.60
67502;SHT30;54349;52.528;19.760;2023-06-26T15:10:22;20.24;48.69
67502;SHT30;54349;52.528;19.760;2023-06-26T15:12:53;20.21;48.89
67502;SHT30;54349;52.528;19.760;2023-06-26T15:15:23;20.17;49.16
67502;SHT30;54349;52.528;19.760;2023-06-26T15:17:53;20.14;49.36
67502;SHT30;54349;52.528;19.760;2023-06-26T15:20:22;20.09;49.47
67502;SHT30;54349;52.528;19.760;2023-06-26T15:22:50;20.07;49.41
67502;SHT30;54349;52.528;19.760;2023-06-26T15:25:18;20.02;49.81
67502;SHT30;54349;52.528;19.760;2023-06-26T15:27:47;20.00;49.68
67502;SHT30;54349;52.528;19.760;2023-06-26T15:30:16;19.99;51.04
67502;SHT30;54349;52.528;19.760;2023-06-26T15:32:44;20.07;52.44
67502;SHT30;54349;52.528;19.760;2023-06-26T15:35:12;20.12;51.38
67502;SHT30;54349;52.528;19.760;2023-06-26T15:37:41;20.13;50.42
67502;SHT30;54349;52.528;19.760;2023-06-26T15:40:09;20.12;50.17